sensor_id;sensor_type;location;lat;lon;timestamp;temperature;humidity
2993;DHT22;1506;48.932;9.478;2022-12-11T00:00:51;0.80;1.00
2993;DHT22;1506;48.932;9.478;2022-12-11T00:03:18;0.70;1.00
2993;DHT22;1506;48.932;9.478;2022-12-11T00:05:45;0.70;1.00
2993;DHT22;1506;48.932;9.478;2022-12-11T00:08:13;0.70;1.00
2993;DHT22;1506;48.932;9.478;2022-12-11T00:10:47;0.70;1.00
2993;DHT22;1506;48.932;9.478;2022-12-11T00:13:15;0.70;1.00
2993;DHT22;1506;48.932;9.478;2022-12-11T00:15:42;0.70;1.00
2993;DHT22;1506;48.932;9.478;2022-12-11T00:18:12;0.60;1.00
2993;DHT22;1506;48.932;9.478;2022-12-11T00:20:40;0.70;1.00
2993;DHT22;1506;48.932;9.478;2022-12-11T00:23:07;0.70;1.00
2993;DHT22;1506;48.932;9.478;2022-12-11T00:25:34;0.60;1.00
2993;DHT22;1506;48.932;9.478;2022-12-11T00:28:06;0.60;1.00
2993;DHT22;1506;48.932;9.478;2022-12-11T00:30:33;0.60;1.00
2993;DHT22;1506;48.932;9.478;2022-12-11T00:33:00;0.60;1.00
2993;DHT22;1506;48.932;9.478;2022-12-11T00:35:27;0.60;1.00
2993;DHT22;1506;48.932;9.478;2022-12-11T00:37:54;0.60;1.00
2993;DHT22;1506;48.932;9.478;2022-12-11T00:40:21;0.60;1.00
2993;DHT22;1506;48.932;9.478;2022-12-11T00:42:48;0.60;1.00
2993;DHT22;1506;48.932;9.478;2022-12-11T00:45:15;0.60;1.00
2993;DHT22;1506;48.932;9.478;2022-12-11T00:47:42;0.60;1.00
2993;DHT22;1506;48.932;9.478;2022-12-11T00:50:09;0.60;1.00
2993;DHT22;1506;48.932;9.478;2022-12-11T00:52:37;0.60;1.00
2993;DHT22;1506;48.932;9.478;2022-12-11T00:55:06;0.60;1.00
2993;DHT22;1506;48.932;9.478;2022-12-11T00:57:34;0.60;1.00
2993;DHT22;1506;48.932;9.478;2022-12-11T01:00:01;0.50;1.00
2993;DHT22;1506;48.932;9.478;2022-12-11T01:02:33;0.60;1.00
2993;DHT22;1506;48.932;9.478;2022-12-11T01:05:00;0.60;1.00
2993;DHT22;1506;48.932;9.478;2022-12-11T01:07:27;0.50;1.00
2993;DHT22;1506;48.932;9.478;2022-12-11T01:09:54;0.60;1.00
2993;DHT22;1506;48.932;9.478;2022-12-11T01:12:40;0.50;1.00
2993;DHT22;1506;48.932;9.478;2022-12-11T01:15:07;0.50;1.00
2993;DHT22;1506;48.932;9.478;2022-12-11T01:17:35;0.50;1.00
2993;DHT22;1506;48.932;9.478;2022-12-11T01:20:03;0.50;1.00
2993;DHT22;1506;48.932;9.478;2022-12-11T01:22:31;0.50;1.00
2993;DHT22;1506;48.932;9.478;2022-12-11T01:24:58;0.50;1.00
2993;DHT22;1506;48.932;9.478;2022-12-11T01:27:25;0.40;1.00
2993;DHT22;1506;48.932;9.478;2022-12-11T01:29:52;0.40;1.00
2993;DHT22;1506;48.932;9.478;2022-12-11T01:32:19;0.40;1.00
2993;DHT22;1506;48.932;9.478;2022-12-11T01:34:46;0.40;1.00
2993;DHT22;1506;48.932;9.478;2022-12-11T01:37:13;0.40;1.00
2993;DHT22;1506;48.932;9.478;2022-12-11T01:39:40;0.50;1.00
2993;DHT22;1506;48.932;9.478;2022-12-11T01:42:16;0.50;1.00
2993;DHT22;1506;48.932;9.478;2022-12-11T01:47:11;0.50;1.00
2993;DHT22;1506;48.932;9.478;2022-12-11T01:49:39;0.50;1.00
2993;DHT22;1506;48.932;9.478;2022-12-11T01:52:12;0.50;1.00
2993;DHT22;1506;48.932;9.478;2022-12-11T01:54:42;0.50;1.00
2993;DHT22;1506;48.932;9.478;2022-12-11T01:57:10;0.50;99.90
2993;DHT22;1506;48.932;9.478;2022-12-11T01:59:41;0.50;99.90
2993;DHT22;1506;48.932;9.478;2022-12-11T02:02:16;0.50;99.90
2993;DHT22;1506;48.932;9.478;2022-12-11T02:04:52;0.50;99.90
2993;DHT22;1506;48.932;9.478;2022-12-11T02:07:19;0.40;99.90
2993;DHT22;1506;48.932;9.478;2022-12-11T02:09:47;0.40;19.80
2993;DHT22;1506;48.932;9.478;2022-12-11T02:15:36;0.60;99.90
2993;DHT22;1506;48.932;9.478;2022-12-11T02:18:41;0.60;99.90
2993;DHT22;1506;48.932;9.478;2022-12-11T02:21:48;0.60;78.90
2993;DHT22;1506;48.932;9.478;2022-12-11T02:24:39;0.60;1.00
2993;DHT22;1506;48.932;9.478;2022-12-11T02:27:16;0.60;99.90
2993;DHT22;1506;48.932;9.478;2022-12-11T02:30:10;0.70;99.90
2993;DHT22;1506;48.932;9.478;2022-12-11T02:32:53;0.70;99.90
2993;DHT22;1506;48.932;9.478;2022-12-11T02:35:33;0.70;42.20
2993;DHT22;1506;48.932;9.478;2022-12-11T02:38:24;0.80;1.00
2993;DHT22;1506;48.932;9.478;2022-12-11T02:40:55;0.80;99.90
2993;DHT22;1506;48.932;9.478;2022-12-11T02:43:24;0.80;1.00
2993;DHT22;1506;48.932;9.478;2022-12-11T02:45:52;0.90;92.90
2993;DHT22;1506;48.932;9.478;2022-12-11T02:48:21;0.80;1.00
2993;DHT22;1506;48.932;9.478;2022-12-11T02:50:51;0.80;1.00
2993;DHT22;1506;48.932;9.478;2022-12-11T02:53:23;0.90;8.20
2993;DHT22;1506;48.932;9.478;2022-12-11T02:55:58;0.90;1.00
2993;DHT22;1506;48.932;9.478;2022-12-11T02:58:32;0.90;1.00
2993;DHT22;1506;48.932;9.478;2022-12-11T03:01:00;0.80;99.90
2993;DHT22;1506;48.932;9.478;2022-12-11T03:03:28;0.70;99.90
2993;DHT22;1506;48.932;9.478;2022-12-11T03:05:56;0.70;1.00
2993;DHT22;1506;48.932;9.478;2022-12-11T03:08:23;0.60;1.00
2993;DHT22;1506;48.932;9.478;2022-12-11T03:10:50;0.60;1.00
2993;DHT22;1506;48.932;9.478;2022-12-11T03:13:20;0.70;1.00
2993;DHT22;1506;48.932;9.478;2022-12-11T03:16:14;0.70;1.00
2993;DHT22;1506;48.932;9.478;2022-12-11T03:19:05;0.70;1.00
2993;DHT22;1506;48.932;9.478;2022-12-11T03:21:45;0.60;1.00
2993;DHT22;1506;48.932;9.478;2022-12-11T03:24:27;0.60;99.90
2993;DHT22;1506;48.932;9.478;2022-12-11T03:27:06;0.50;69.40
2993;DHT22;1506;48.932;9.478;2022-12-11T03:29:53;0.50;1.00
2993;DHT22;1506;48.932;9.478;2022-12-11T03:32:24;0.40;94.60
2993;DHT22;1506;48.932;9.478;2022-12-11T03:37:50;0.30;1.00
2993;DHT22;1506;48.932;9.478;2022-12-11T03:40:20;0.20;99.90
2993;DHT22;1506;48.932;9.478;2022-12-11T03:42:51;0.10;99.90
2993;DHT22;1506;48.932;9.478;2022-12-11T03:45:20;0.10;99.90
2993;DHT22;1506;48.932;9.478;2022-12-11T03:47:49;0.10;99.90
2993;DHT22;1506;48.932;9.478;2022-12-11T03:50:17;0.10;1.00
2993;DHT22;1506;48.932;9.478;2022-12-11T03:52:46;0.20;1.00
2993;DHT22;1506;48.932;9.478;2022-12-11T03:55:15;0.20;1.00
2993;DHT22;1506;48.932;9.478;2022-12-11T03:57:43;0.20;99.90
2993;DHT22;1506;48.932;9.478;2022-12-11T04:00:14;0.20;1.00
2993;DHT22;1506;48.932;9.478;2022-12-11T04:02:43;0.10;1.00
2993;DHT22;1506;48.932;9.478;2022-12-11T04:05:11;0.10;1.00
2993;DHT22;1506;48.932;9.478;2022-12-11T04:07:38;0.10;1.00
2993;DHT22;1506;48.932;9.478;2022-12-11T04:10:05;0.20;1.00
2993;DHT22;1506;48.932;9.478;2022-12-11T04:12:32;0.30;1.00
2993;DHT22;1506;48.932;9.478;2022-12-11T04:14:59;0.40;1.00
2993;DHT22;1506;48.932;9.478;2022-12-11T04:17:34;0.40;1.00
2993;DHT22;1506;48.932;9.478;2022-12-11T04:20:21;0.50;1.00
2993;DHT22;1506;48.932;9.478;2022-12-11T04:23:12;0.50;1.00
2993;DHT22;1506;48.932;9.478;2022-12-11T04:26:08;0.50;1.00
2993;DHT22;1506;48.932;9.478;2022-12-11T04:28:38;0.50;1.00
2993;DHT22;1506;48.932;9.478;2022-12-11T04:31:09;0.50;1.00
2993;DHT22;1506;48.932;9.478;2022-12-11T04:33:37;0.60;1.00
2993;DHT22;1506;48.932;9.478;2022-12-11T04:36:04;0.60;1.00
2993;DHT22;1506;48.932;9.478;2022-12-11T04:38:32;0.60;1.00
2993;DHT22;1506;48.932;9.478;2022-12-11T04:41:00;0.60;1.00
2993;DHT22;1506;48.932;9.478;2022-12-11T04:43:32;0.60;1.00
2993;DHT22;1506;48.932;9.478;2022-12-11T04:46:04;0.70;1.00
2993;DHT22;1506;48.932;9.478;2022-12-11T04:48:33;0.60;1.00
2993;DHT22;1506;48.932;9.478;2022-12-11T04:51:01;0.60;1.00
2993;DHT22;1506;48.932;9.478;2022-12-11T04:53:28;0.70;1.00
2993;DHT22;1506;48.932;9.478;2022-12-11T04:55:55;0.70;1.00
2993;DHT22;1506;48.932;9.478;2022-12-11T04:58:23;0.70;1.00
2993;DHT22;1506;48.932;9.478;2022-12-11T05:00:51;0.70;1.00
2993;DHT22;1506;48.932;9.478;2022-12-11T05:03:19;0.70;1.00
2993;DHT22;1506;48.932;9.478;2022-12-11T05:05:51;0.80;1.00
2993;DHT22;1506;48.932;9.478;2022-12-11T05:08:19;0.70;1.00
2993;DHT22;1506;48.932;9.478;2022-12-11T05:11:01;0.70;1.00
2993;DHT22;1506;48.932;9.478;2022-12-11T05:13:29;0.70;1.00
2993;DHT22;1506;48.932;9.478;2022-12-11T05:15:57;0.70;1.00
2993;DHT22;1506;48.932;9.478;2022-12-11T05:18:25;0.80;1.00
2993;DHT22;1506;48.932;9.478;2022-12-11T05:21:05;0.80;1.00
2993;DHT22;1506;48.932;9.478;2022-12-11T05:23:34;0.80;1.00
2993;DHT22;1506;48.932;9.478;2022-12-11T05:26:05;0.80;1.00
2993;DHT22;1506;48.932;9.478;2022-12-11T05:28:35;0.80;1.00
2993;DHT22;1506;48.932;9.478;2022-12-11T05:31:06;0.80;1.00
2993;DHT22;1506;48.932;9.478;2022-12-11T05:33:36;0.80;1.00
2993;DHT22;1506;48.932;9.478;2022-12-11T05:36:04;0.80;1.00
2993;DHT22;1506;48.932;9.478;2022-12-11T05:38:32;0.70;1.00
2993;DHT22;1506;48.932;9.478;2022-12-11T05:41:01;0.60;1.00
2993;DHT22;1506;48.932;9.478;2022-12-11T05:43:31;0.50;1.00
2993;DHT22;1506;48.932;9.478;2022-12-11T05:46:15;0.50;1.00
2993;DHT22;1506;48.932;9.478;2022-12-11T05:48:45;0.40;1.00
2993;DHT22;1506;48.932;9.478;2022-12-11T05:51:14;0.40;1.00
2993;DHT22;1506;48.932;9.478;2022-12-11T05:53:44;0.30;1.00
2993;DHT22;1506;48.932;9.478;2022-12-11T05:56:17;0.30;1.00
2993;DHT22;1506;48.932;9.478;2022-12-11T05:58:55;0.30;1.00
2993;DHT22;1506;48.932;9.478;2022-12-11T06:01:37;0.20;1.00
2993;DHT22;1506;48.932;9.478;2022-12-11T06:04:07;0.20;1.00
2993;DHT22;1506;48.932;9.478;2022-12-11T06:06:36;0.10;1.00
2993;DHT22;1506;48.932;9.478;2022-12-11T06:09:06;0.00;1.00
2993;DHT22;1506;48.932;9.478;2022-12-11T06:11:33;-0.10;1.00
2993;DHT22;1506;48.932;9.478;2022-12-11T06:14:02;-0.10;1.00
2993;DHT22;1506;48.932;9.478;2022-12-11T06:16:30;-0.10;1.00
2993;DHT22;1506;48.932;9.478;2022-12-11T06:18:57;-0.10;1.00
2993;DHT22;1506;48.932;9.478;2022-12-11T06:21:30;0.00;1.00
2993;DHT22;1506;48.932;9.478;2022-12-11T06:24:00;0.00;1.00
2993;DHT22;1506;48.932;9.478;2022-12-11T06:26:29;0.00;1.00
2993;DHT22;1506;48.932;9.478;2022-12-11T06:28:57;0.10;1.00
2993;DHT22;1506;48.932;9.478;2022-12-11T06:31:24;0.10;1.00
2993;DHT22;1506;48.932;9.478;2022-12-11T06:33:52;0.20;1.00
2993;DHT22;1506;48.932;9.478;2022-12-11T06:36:23;0.20;1.00
2993;DHT22;1506;48.932;9.478;2022-12-11T06:38:51;0.30;1.00
2993;DHT22;1506;48.932;9.478;2022-12-11T06:41:18;0.40;1.00
2993;DHT22;1506;48.932;9.478;2022-12-11T06:43:45;0.40;1.00
2993;DHT22;1506;48.932;9.478;2022-12-11T06:46:15;0.40;1.00
2993;DHT22;1506;48.932;9.478;2022-12-11T06:48:44;0.50;1.00
2993;DHT22;1506;48.932;9.478;2022-12-11T06:51:16;0.50;1.00
2993;DHT22;1506;48.932;9.478;2022-12-11T06:53:49;0.50;1.00
2993;DHT22;1506;48.932;9.478;2022-12-11T06:56:21;0.50;1.00
2993;DHT22;1506;48.932;9.478;2022-12-11T06:58:49;0.50;1.00
2993;DHT22;1506;48.932;9.478;2022-12-11T07:01:22;0.50;1.00
2993;DHT22;1506;48.932;9.478;2022-12-11T07:03:55;0.50;1.00
2993;DHT22;1506;48.932;9.478;2022-12-11T07:06:25;0.40;1.00
2993;DHT22;1506;48.932;9.478;2022-12-11T07:08:53;0.40;1.00
2993;DHT22;1506;48.932;9.478;2022-12-11T07:11:21;0.40;1.00
2993;DHT22;1506;48.932;9.478;2022-12-11T07:13:48;0.50;1.00
2993;DHT22;1506;48.932;9.478;2022-12-11T07:16:16;0.50;1.00
2993;DHT22;1506;48.932;9.478;2022-12-11T07:18:49;0.50;1.00
2993;DHT22;1506;48.932;9.478;2022-12-11T07:21:18;0.50;1.00
2993;DHT22;1506;48.932;9.478;2022-12-11T07:23:47;0.50;1.00
2993;DHT22;1506;48.932;9.478;2022-12-11T07:26:18;0.40;1.00
2993;DHT22;1506;48.932;9.478;2022-12-11T07:28:46;0.40;1.00
2993;DHT22;1506;48.932;9.478;2022-12-11T07:31:16;0.40;1.00
2993;DHT22;1506;48.932;9.478;2022-12-11T07:33:45;0.40;1.00
2993;DHT22;1506;48.932;9.478;2022-12-11T07:36:13;0.40;1.00
2993;DHT22;1506;48.932;9.478;2022-12-11T07:38:41;0.40;1.00
2993;DHT22;1506;48.932;9.478;2022-12-11T07:41:11;0.40;1.00
2993;DHT22;1506;48.932;9.478;2022-12-11T07:43:40;0.30;1.00
2993;DHT22;1506;48.932;9.478;2022-12-11T07:46:19;0.30;1.00
2993;DHT22;1506;48.932;9.478;2022-12-11T07:48:50;0.30;1.00
2993;DHT22;1506;48.932;9.478;2022-12-11T07:51:23;0.40;1.00
2993;DHT22;1506;48.932;9.478;2022-12-11T07:53:57;0.30;1.00
2993;DHT22;1506;48.932;9.478;2022-12-11T07:56:27;0.30;1.00
2993;DHT22;1506;48.932;9.478;2022-12-11T07:58:54;0.40;1.00
2993;DHT22;1506;48.932;9.478;2022-12-11T08:01:24;0.50;1.00
2993;DHT22;1506;48.932;9.478;2022-12-11T08:03:52;0.50;1.00
2993;DHT22;1506;48.932;9.478;2022-12-11T08:06:25;0.50;1.00
2993;DHT22;1506;48.932;9.478;2022-12-11T08:08:54;0.40;1.00
2993;DHT22;1506;48.932;9.478;2022-12-11T08:11:22;0.30;1.00
2993;DHT22;1506;48.932;9.478;2022-12-11T08:13:50;0.30;1.00
2993;DHT22;1506;48.932;9.478;2022-12-11T08:16:17;0.30;1.00
2993;DHT22;1506;48.932;9.478;2022-12-11T08:18:45;0.30;1.00
2993;DHT22;1506;48.932;9.478;2022-12-11T08:21:16;0.40;10.90
2993;DHT22;1506;48.932;9.478;2022-12-11T08:23:53;0.50;7.80
2993;DHT22;1506;48.932;9.478;2022-12-11T08:26:26;0.60;1.00
2993;DHT22;1506;48.932;9.478;2022-12-11T08:28:55;0.50;1.00
2993;DHT22;1506;48.932;9.478;2022-12-11T08:31:23;0.60;1.00
2993;DHT22;1506;48.932;9.478;2022-12-11T08:33:50;0.70;1.80
2993;DHT22;1506;48.932;9.478;2022-12-11T08:36:20;0.80;1.00
2993;DHT22;1506;48.932;9.478;2022-12-11T08:38:49;0.80;1.00
2993;DHT22;1506;48.932;9.478;2022-12-11T08:41:18;0.90;1.00
2993;DHT22;1506;48.932;9.478;2022-12-11T08:43:50;1.00;1.00
2993;DHT22;1506;48.932;9.478;2022-12-11T08:46:22;1.10;1.00
2993;DHT22;1506;48.932;9.478;2022-12-11T08:48:52;1.20;1.00
2993;DHT22;1506;48.932;9.478;2022-12-11T08:51:22;1.20;1.00
2993;DHT22;1506;48.932;9.478;2022-12-11T08:53:54;1.30;1.00
2993;DHT22;1506;48.932;9.478;2022-12-11T08:56:23;1.30;1.00
2993;DHT22;1506;48.932;9.478;2022-12-11T08:58:51;1.30;1.00
2993;DHT22;1506;48.932;9.478;2022-12-11T09:01:21;1.30;1.00
2993;DHT22;1506;48.932;9.478;2022-12-11T09:03:50;1.10;1.00
2993;DHT22;1506;48.932;9.478;2022-12-11T09:06:20;1.10;1.00
2993;DHT22;1506;48.932;9.478;2022-12-11T09:08:49;1.10;1.00
2993;DHT22;1506;48.932;9.478;2022-12-11T09:11:22;1.20;1.00
2993;DHT22;1506;48.932;9.478;2022-12-11T09:13:50;1.20;1.00
2993;DHT22;1506;48.932;9.478;2022-12-11T09:16:20;1.00;1.00
2993;DHT22;1506;48.932;9.478;2022-12-11T09:18:51;0.90;1.00
2993;DHT22;1506;48.932;9.478;2022-12-11T09:21:22;0.90;1.00
2993;DHT22;1506;48.932;9.478;2022-12-11T09:23:55;0.90;1.00
2993;DHT22;1506;48.932;9.478;2022-12-11T09:26:25;0.90;1.00
2993;DHT22;1506;48.932;9.478;2022-12-11T09:28:53;0.90;1.00
2993;DHT22;1506;48.932;9.478;2022-12-11T09:31:26;0.90;1.00
2993;DHT22;1506;48.932;9.478;2022-12-11T09:33:57;0.70;1.00
2993;DHT22;1506;48.932;9.478;2022-12-11T09:36:26;0.60;1.00
2993;DHT22;1506;48.932;9.478;2022-12-11T09:38:53;0.70;1.00
2993;DHT22;1506;48.932;9.478;2022-12-11T09:46:30;0.90;1.00
2993;DHT22;1506;48.932;9.478;2022-12-11T09:49:01;1.10;29.20
2993;DHT22;1506;48.932;9.478;2022-12-11T09:51:52;1.10;1.00
2993;DHT22;1506;48.932;9.478;2022-12-11T09:54:48;1.10;1.00
2993;DHT22;1506;48.932;9.478;2022-12-11T10:01:00;0.90;1.00
2993;DHT22;1506;48.932;9.478;2022-12-11T10:09:42;0.90;1.00
2993;DHT22;1506;48.932;9.478;2022-12-11T10:12:44;0.90;1.00
2993;DHT22;1506;48.932;9.478;2022-12-11T10:15:38;0.90;1.00
2993;DHT22;1506;48.932;9.478;2022-12-11T10:18:12;1.10;1.00
2993;DHT22;1506;48.932;9.478;2022-12-11T10:20:43;1.20;1.00
2993;DHT22;1506;48.932;9.478;2022-12-11T10:23:20;1.20;1.00
2993;DHT22;1506;48.932;9.478;2022-12-11T10:25:56;1.20;1.00
2993;DHT22;1506;48.932;9.478;2022-12-11T10:28:27;1.10;1.00
2993;DHT22;1506;48.932;9.478;2022-12-11T10:33:41;1.10;1.00
2993;DHT22;1506;48.932;9.478;2022-12-11T10:36:19;1.20;1.00
2993;DHT22;1506;48.932;9.478;2022-12-11T10:38:55;1.20;1.00
2993;DHT22;1506;48.932;9.478;2022-12-11T10:41:38;1.30;1.00
2993;DHT22;1506;48.932;9.478;2022-12-11T10:44:23;1.30;1.00
2993;DHT22;1506;48.932;9.478;2022-12-11T10:47:09;1.40;1.00
2993;DHT22;1506;48.932;9.478;2022-12-11T10:49:41;1.50;1.00
2993;DHT22;1506;48.932;9.478;2022-12-11T10:52:32;1.50;1.00
2993;DHT22;1506;48.932;9.478;2022-12-11T10:57:36;1.60;1.00
2993;DHT22;1506;48.932;9.478;2022-12-11T11:00:07;1.80;1.00
2993;DHT22;1506;48.932;9.478;2022-12-11T11:02:51;1.80;99.90
2993;DHT22;1506;48.932;9.478;2022-12-11T11:05:33;1.90;1.00
2993;DHT22;1506;48.932;9.478;2022-12-11T11:08:03;1.90;1.00
2993;DHT22;1506;48.932;9.478;2022-12-11T11:10:36;1.90;99.90
2993;DHT22;1506;48.932;9.478;2022-12-11T11:13:03;2.00;99.90
2993;DHT22;1506;48.932;9.478;2022-12-11T11:15:30;2.10;1.70
2993;DHT22;1506;48.932;9.478;2022-12-11T11:18:10;2.20;1.00
2993;DHT22;1506;48.932;9.478;2022-12-11T11:20:44;2.20;99.90
2993;DHT22;1506;48.932;9.478;2022-12-11T11:23:14;2.20;98.70
2993;DHT22;1506;48.932;9.478;2022-12-11T11:25:57;2.10;99.90
2993;DHT22;1506;48.932;9.478;2022-12-11T11:28:33;2.00;1.00
2993;DHT22;1506;48.932;9.478;2022-12-11T11:31:13;2.00;1.00
2993;DHT22;1506;48.932;9.478;2022-12-11T11:33:57;1.90;1.00
2993;DHT22;1506;48.932;9.478;2022-12-11T11:36:32;1.80;70.70
2993;DHT22;1506;48.932;9.478;2022-12-11T11:39:21;1.80;99.90
2993;DHT22;1506;48.932;9.478;2022-12-11T11:42:12;1.80;99.90
2993;DHT22;1506;48.932;9.478;2022-12-11T11:44:56;1.70;97.80
2993;DHT22;1506;48.932;9.478;2022-12-11T11:47:36;1.70;1.00
2993;DHT22;1506;48.932;9.478;2022-12-11T11:50:17;1.80;1.00
2993;DHT22;1506;48.932;9.478;2022-12-11T11:53:07;1.80;99.90
2993;DHT22;1506;48.932;9.478;2022-12-11T11:58:39;1.70;1.00
2993;DHT22;1506;48.932;9.478;2022-12-11T12:01:15;1.80;99.90
2993;DHT22;1506;48.932;9.478;2022-12-11T12:03:46;1.80;1.00
2993;DHT22;1506;48.932;9.478;2022-12-11T12:09:43;1.70;1.00
2993;DHT22;1506;48.932;9.478;2022-12-11T12:19:11;1.70;1.00
2993;DHT22;1506;48.932;9.478;2022-12-11T12:21:46;1.70;99.90
2993;DHT22;1506;48.932;9.478;2022-12-11T12:24:45;1.70;1.00
2993;DHT22;1506;48.932;9.478;2022-12-11T12:27:30;1.80;99.90
2993;DHT22;1506;48.932;9.478;2022-12-11T12:30:19;1.70;99.90
2993;DHT22;1506;48.932;9.478;2022-12-11T12:33:05;1.80;1.00
2993;DHT22;1506;48.932;9.478;2022-12-11T12:36:47;1.80;1.00
2993;DHT22;1506;48.932;9.478;2022-12-11T12:47:40;1.80;99.90
2993;DHT22;1506;48.932;9.478;2022-12-11T12:50:16;1.80;99.90
2993;DHT22;1506;48.932;9.478;2022-12-11T12:52:46;1.80;1.00
2993;DHT22;1506;48.932;9.478;2022-12-11T12:58:05;1.90;1.00
2993;DHT22;1506;48.932;9.478;2022-12-11T13:03:23;1.90;1.00
2993;DHT22;1506;48.932;9.478;2022-12-11T13:05:59;1.90;1.00
2993;DHT22;1506;48.932;9.478;2022-12-11T13:08:45;2.00;99.90
2993;DHT22;1506;48.932;9.478;2022-12-11T13:11:16;1.90;99.90
2993;DHT22;1506;48.932;9.478;2022-12-11T13:14:04;1.80;1.00
2993;DHT22;1506;48.932;9.478;2022-12-11T13:16:41;1.70;46.50
2993;DHT22;1506;48.932;9.478;2022-12-11T13:19:36;1.70;1.00
2993;DHT22;1506;48.932;9.478;2022-12-11T13:27:39;1.50;48.20
2993;DHT22;1506;48.932;9.478;2022-12-11T13:30:22;1.50;1.00
2993;DHT22;1506;48.932;9.478;2022-12-11T13:33:06;1.50;1.00
2993;DHT22;1506;48.932;9.478;2022-12-11T13:35:34;1.40;99.90
2993;DHT22;1506;48.932;9.478;2022-12-11T13:38:16;1.40;1.00
2993;DHT22;1506;48.932;9.478;2022-12-11T13:40:53;1.40;1.00
2993;DHT22;1506;48.932;9.478;2022-12-11T13:43:26;1.30;99.90
2993;DHT22;1506;48.932;9.478;2022-12-11T13:45:59;1.30;1.00
2993;DHT22;1506;48.932;9.478;2022-12-11T13:48:37;1.30;99.90
2993;DHT22;1506;48.932;9.478;2022-12-11T13:51:06;1.40;1.00
2993;DHT22;1506;48.932;9.478;2022-12-11T13:53:33;1.40;1.00
2993;DHT22;1506;48.932;9.478;2022-12-11T13:56:05;1.40;1.00
2993;DHT22;1506;48.932;9.478;2022-12-11T13:58:58;1.40;1.00
2993;DHT22;1506;48.932;9.478;2022-12-11T14:01:29;1.50;1.00
2993;DHT22;1506;48.932;9.478;2022-12-11T14:04:06;1.50;1.00
2993;DHT22;1506;48.932;9.478;2022-12-11T14:06:38;1.50;99.90
2993;DHT22;1506;48.932;9.478;2022-12-11T14:09:06;1.60;52.00
2993;DHT22;1506;48.932;9.478;2022-12-11T14:11:36;1.60;99.90
2993;DHT22;1506;48.932;9.478;2022-12-11T14:14:15;1.60;1.00
2993;DHT22;1506;48.932;9.478;2022-12-11T14:16:49;1.60;99.90
2993;DHT22;1506;48.932;9.478;2022-12-11T14:19:19;1.50;1.00
2993;DHT22;1506;48.932;9.478;2022-12-11T14:21:55;1.50;99.90
2993;DHT22;1506;48.932;9.478;2022-12-11T14:24:27;1.50;1.00
2993;DHT22;1506;48.932;9.478;2022-12-11T14:26:54;1.40;99.90
2993;DHT22;1506;48.932;9.478;2022-12-11T14:29:30;1.40;99.90
2993;DHT22;1506;48.932;9.478;2022-12-11T14:32:04;1.40;65.10
2993;DHT22;1506;48.932;9.478;2022-12-11T14:34:42;1.20;99.90
2993;DHT22;1506;48.932;9.478;2022-12-11T14:37:13;1.20;99.90
2993;DHT22;1506;48.932;9.478;2022-12-11T14:40:04;1.20;1.00
2993;DHT22;1506;48.932;9.478;2022-12-11T14:42:47;1.20;99.90
2993;DHT22;1506;48.932;9.478;2022-12-11T14:45:38;1.20;1.00
2993;DHT22;1506;48.932;9.478;2022-12-11T14:48:11;1.10;1.00
2993;DHT22;1506;48.932;9.478;2022-12-11T14:50:47;1.10;1.00
2993;DHT22;1506;48.932;9.478;2022-12-11T14:53:18;1.10;99.90
2993;DHT22;1506;48.932;9.478;2022-12-11T14:55:49;1.10;99.90
2993;DHT22;1506;48.932;9.478;2022-12-11T14:58:24;1.00;1.00
2993;DHT22;1506;48.932;9.478;2022-12-11T15:01:06;1.00;1.00
2993;DHT22;1506;48.932;9.478;2022-12-11T15:03:46;1.00;99.90
2993;DHT22;1506;48.932;9.478;2022-12-11T15:06:25;1.00;1.00
2993;DHT22;1506;48.932;9.478;2022-12-11T15:08:55;1.00;99.90
2993;DHT22;1506;48.932;9.478;2022-12-11T15:11:23;1.00;1.00
2993;DHT22;1506;48.932;9.478;2022-12-11T15:13:58;0.90;1.00
2993;DHT22;1506;48.932;9.478;2022-12-11T15:16:30;1.00;99.90
2993;DHT22;1506;48.932;9.478;2022-12-11T15:18:59;0.90;99.90
2993;DHT22;1506;48.932;9.478;2022-12-11T15:21:33;1.00;99.90
2993;DHT22;1506;48.932;9.478;2022-12-11T15:24:03;1.00;1.00
2993;DHT22;1506;48.932;9.478;2022-12-11T15:26:45;1.00;1.00
2993;DHT22;1506;48.932;9.478;2022-12-11T15:29:36;0.90;1.00
2993;DHT22;1506;48.932;9.478;2022-12-11T15:34:45;0.90;99.90
2993;DHT22;1506;48.932;9.478;2022-12-11T15:39:59;0.90;99.90
2993;DHT22;1506;48.932;9.478;2022-12-11T15:42:39;0.90;95.80
2993;DHT22;1506;48.932;9.478;2022-12-11T15:45:15;0.90;57.10
2993;DHT22;1506;48.932;9.478;2022-12-11T15:47:43;1.00;99.90
2993;DHT22;1506;48.932;9.478;2022-12-11T15:52:42;1.00;99.90
2993;DHT22;1506;48.932;9.478;2022-12-11T15:55:10;1.10;1.00
2993;DHT22;1506;48.932;9.478;2022-12-11T15:57:46;1.10;99.90
2993;DHT22;1506;48.932;9.478;2022-12-11T16:00:17;1.10;99.90
2993;DHT22;1506;48.932;9.478;2022-12-11T16:02:50;1.10;1.00
2993;DHT22;1506;48.932;9.478;2022-12-11T16:05:17;1.10;1.00
2993;DHT22;1506;48.932;9.478;2022-12-11T16:07:45;1.10;1.00
2993;DHT22;1506;48.932;9.478;2022-12-11T16:10:14;1.10;99.90
2993;DHT22;1506;48.932;9.478;2022-12-11T16:12:43;1.10;99.90
2993;DHT22;1506;48.932;9.478;2022-12-11T16:15:12;1.10;1.00
2993;DHT22;1506;48.932;9.478;2022-12-11T16:17:48;1.00;99.90
2993;DHT22;1506;48.932;9.478;2022-12-11T16:20:16;0.90;99.90
2993;DHT22;1506;48.932;9.478;2022-12-11T16:22:43;1.00;99.90
2993;DHT22;1506;48.932;9.478;2022-12-11T16:25:10;1.00;1.00
2993;DHT22;1506;48.932;9.478;2022-12-11T16:27:37;1.00;1.00
2993;DHT22;1506;48.932;9.478;2022-12-11T16:30:05;1.00;1.00
2993;DHT22;1506;48.932;9.478;2022-12-11T16:32:32;1.00;1.00
2993;DHT22;1506;48.932;9.478;2022-12-11T16:34:59;0.90;1.00
2993;DHT22;1506;48.932;9.478;2022-12-11T16:37:26;0.90;1.00
2993;DHT22;1506;48.932;9.478;2022-12-11T16:39:54;0.80;1.00
2993;DHT22;1506;48.932;9.478;2022-12-11T16:42:21;0.80;1.00
2993;DHT22;1506;48.932;9.478;2022-12-11T16:44:48;0.80;1.00
2993;DHT22;1506;48.932;9.478;2022-12-11T16:47:15;0.80;1.00
2993;DHT22;1506;48.932;9.478;2022-12-11T16:49:42;0.80;1.00
2993;DHT22;1506;48.932;9.478;2022-12-11T16:52:09;0.80;99.90
2993;DHT22;1506;48.932;9.478;2022-12-11T16:54:36;0.80;1.00
2993;DHT22;1506;48.932;9.478;2022-12-11T16:57:03;0.90;1.00
2993;DHT22;1506;48.932;9.478;2022-12-11T16:59:30;0.80;6.90
2993;DHT22;1506;48.932;9.478;2022-12-11T17:02:03;0.80;1.00
2993;DHT22;1506;48.932;9.478;2022-12-11T17:04:30;0.90;92.00
2993;DHT22;1506;48.932;9.478;2022-12-11T17:06:58;0.90;99.90
2993;DHT22;1506;48.932;9.478;2022-12-11T17:09:25;0.90;1.00
2993;DHT22;1506;48.932;9.478;2022-12-11T17:11:52;0.90;99.90
2993;DHT22;1506;48.932;9.478;2022-12-11T17:14:19;0.90;1.00
2993;DHT22;1506;48.932;9.478;2022-12-11T17:16:46;1.00;99.90
2993;DHT22;1506;48.932;9.478;2022-12-11T17:19:14;1.10;72.50
2993;DHT22;1506;48.932;9.478;2022-12-11T17:21:42;1.00;99.90
2993;DHT22;1506;48.932;9.478;2022-12-11T17:24:16;1.00;1.00
2993;DHT22;1506;48.932;9.478;2022-12-11T17:26:44;1.10;16.70
2993;DHT22;1506;48.932;9.478;2022-12-11T17:29:11;1.10;99.90
2993;DHT22;1506;48.932;9.478;2022-12-11T17:31:39;1.10;99.90
2993;DHT22;1506;48.932;9.478;2022-12-11T17:34:06;1.10;1.00
2993;DHT22;1506;48.932;9.478;2022-12-11T17:36:33;1.10;99.90
2993;DHT22;1506;48.932;9.478;2022-12-11T17:39:02;1.10;1.00
2993;DHT22;1506;48.932;9.478;2022-12-11T17:41:29;1.10;1.00
2993;DHT22;1506;48.932;9.478;2022-12-11T17:43:56;1.00;99.90
2993;DHT22;1506;48.932;9.478;2022-12-11T17:46:23;1.00;99.90
2993;DHT22;1506;48.932;9.478;2022-12-11T17:48:50;1.00;1.00
2993;DHT22;1506;48.932;9.478;2022-12-11T17:51:18;0.90;99.90
2993;DHT22;1506;48.932;9.478;2022-12-11T17:53:51;0.90;1.00
2993;DHT22;1506;48.932;9.478;2022-12-11T17:56:18;0.90;99.90
2993;DHT22;1506;48.932;9.478;2022-12-11T17:58:45;0.90;1.00
2993;DHT22;1506;48.932;9.478;2022-12-11T18:01:13;0.90;1.00
2993;DHT22;1506;48.932;9.478;2022-12-11T18:03:40;0.80;1.00
2993;DHT22;1506;48.932;9.478;2022-12-11T18:06:10;0.80;99.90
2993;DHT22;1506;48.932;9.478;2022-12-11T18:08:40;0.80;99.90
2993;DHT22;1506;48.932;9.478;2022-12-11T18:11:18;0.80;1.00
2993;DHT22;1506;48.932;9.478;2022-12-11T18:13:48;0.80;1.00